Time;durP1;ratioP1;P1;durP2;ratioP2;P2;SDS_P1;SDS_P2;PMS_P1;PMS_P2;Temp;Humidity;BMP_temperature;BMP_pressure;BME280_temperature;BME280_humidity;BME280_pressure;Samples;Min_cycle;Max_cycle;Signal;HPM_P1;HPM_P2
2022/07/16 00:02:54;;;;;;;6.28;2.30;;;;;;;15.83;55.17;99343.44;5032323;28;20411;-59
2022/07/16 00:05:20;;;;;;;8.55;2.30;;;;;;;15.74;55.48;99339.06;5031465;28;20037;-57
2022/07/16 00:07:45;;;;;;;5.00;2.38;;;;;;;15.76;55.75;99347.84;5032284;28;20025;-57
2022/07/16 00:10:11;;;;;;;3.95;2.00;;;;;;;15.76;55.74;99353.22;5032362;28;20036;-58
2022/07/16 00:12:37;;;;;;;9.27;2.42;;;;;;;15.69;55.60;99339.56;5032310;28;20033;-59
2022/07/16 00:15:03;;;;;;;12.07;2.33;;;;;;;15.74;55.95;99352.56;5032188;28;20091;-57
2022/07/16 00:17:29;;;;;;;12.95;2.40;;;;;;;15.72;55.75;99349.19;5032301;28;20075;-57
2022/07/16 00:19:55;;;;;;;12.43;2.13;;;;;;;15.71;55.60;99344.81;5032099;28;20037;-59
2022/07/16 00:22:21;;;;;;;7.15;2.20;;;;;;;15.64;55.91;99350.03;5031545;28;20030;-56
2022/07/16 00:24:46;;;;;;;5.00;2.28;;;;;;;15.60;56.18;99344.13;5031972;28;20037;-57
2022/07/16 00:27:12;;;;;;;8.30;2.75;;;;;;;15.61;56.37;99348.50;5031182;28;20061;-59
2022/07/16 00:29:37;;;;;;;9.07;2.08;;;;;;;15.61;56.57;99353.91;5031904;28;20103;-58
2022/07/16 00:32:03;;;;;;;6.65;2.17;;;;;;;15.60;56.40;99354.91;5031996;28;20030;-59
2022/07/16 00:34:29;;;;;;;7.63;2.38;;;;;;;15.56;56.63;99347.34;5031599;28;20044;-58
2022/07/16 00:36:54;;;;;;;3.42;1.85;;;;;;;15.54;56.66;99357.44;5031833;28;20091;-57
2022/07/16 00:39:20;;;;;;;9.45;2.10;;;;;;;15.54;56.58;99368.22;5031235;28;20091;-57
2022/07/16 00:41:47;;;;;;;9.05;2.10;;;;;;;15.31;56.85;99334.66;5031634;28;20044;-60
2022/07/16 00:44:16;;;;;;;5.65;2.13;;;;;;;15.45;57.09;99372.78;5031478;28;20065;-58
2022/07/16 00:46:43;;;;;;;8.93;2.28;;;;;;;15.41;57.02;99374.09;5031284;28;20029;-58
2022/07/16 00:49:09;;;;;;;6.85;2.30;;;;;;;15.35;57.73;99365.69;5031726;28;20099;-55
2022/07/16 00:51:36;;;;;;;9.35;2.22;;;;;;;15.34;57.33;99372.09;5031119;28;20033;-57
2022/07/16 00:54:03;;;;;;;6.10;2.45;;;;;;;15.29;57.76;99373.59;5031615;28;20044;-57
2022/07/16 00:56:29;;;;;;;4.40;2.00;;;;;;;15.21;58.29;99360.94;5031192;28;20029;-58
2022/07/16 00:58:55;;;;;;;8.02;2.22;;;;;;;15.19;58.03;99353.00;5030986;28;20500;-58
2022/07/16 01:01:21;;;;;;;6.18;2.22;;;;;;;15.26;57.99;99372.06;5031267;28;20029;-57
2022/07/16 01:03:47;;;;;;;6.43;2.38;;;;;;;15.25;58.33;99366.84;5031330;28;20036;-57
2022/07/16 01:06:15;;;;;;;12.45;2.35;;;;;;;15.27;58.01;99371.06;5030965;28;20033;-59
2022/07/16 01:08:46;;;;;;;12.88;2.67;;;;;;;15.26;58.33;99382.88;5031441;28;20029;-56
2022/07/16 01:11:14;;;;;;;6.90;2.13;;;;;;;15.18;58.50;99366.66;5030120;28;20488;-57
2022/07/16 01:13:42;;;;;;;8.38;2.30;;;;;;;15.23;58.28;99379.66;5031353;28;20064;-58
2022/07/16 01:16:08;;;;;;;6.07;2.05;;;;;;;15.21;58.41;99377.13;5031413;28;20037;-58
2022/07/16 01:18:36;;;;;;;8.88;2.28;;;;;;;15.23;58.62;99379.66;5029505;28;20156;-58
2022/07/16 01:21:02;;;;;;;9.70;4.60;;;;;;;15.18;58.74;99375.59;5030503;28;20337;-56
2022/07/16 01:23:27;;;;;;;7.82;2.13;;;;;;;15.15;58.62;99377.78;5031139;28;20396;-57
2022/07/16 01:25:53;;;;;;;7.68;2.05;;;;;;;15.18;59.04;99388.22;5030858;28;20152;-58
2022/07/16 01:28:19;;;;;;;8.55;2.40;;;;;;;15.04;58.80;99357.34;5030151;28;20068;-58
2022/07/16 01:30:46;;;;;;;8.48;2.00;;;;;;;15.12;58.67;99368.19;5030757;28;20030;-57
2022/07/16 01:33:33;;;;;;;7.30;1.90;;;;;;;15.33;58.76;99381.19;5030273;28;20040;-59
2022/07/16 01:36:08;;;;;;;6.18;1.90;;;;;;;15.31;58.54;99380.50;5030156;28;20053;-55
2022/07/16 01:38:38;;;;;;;7.87;2.40;;;;;;;15.27;58.14;99381.00;5030265;28;20049;-56
2022/07/16 01:41:03;;;;;;;9.05;2.08;;;;;;;15.26;58.48;99385.56;5030710;28;20045;-58
2022/07/16 01:43:29;;;;;;;9.50;2.10;;;;;;;15.28;58.85;99388.94;5030398;28;20361;-59
2022/07/16 01:45:56;;;;;;;7.22;1.80;;;;;;;15.28;58.62;99397.03;5030485;28;20474;-59
2022/07/16 01:48:22;;;;;;;4.60;1.80;;;;;;;15.29;58.79;99393.31;5030105;28;20037;-55
2022/07/16 01:50:48;;;;;;;7.70;1.88;;;;;;;15.31;58.99;99403.94;5030588;28;20386;-58
2022/07/16 01:53:14;;;;;;;4.85;1.95;;;;;;;15.33;58.87;99391.97;5030419;28;20053;-55
2022/07/16 01:55:40;;;;;;;5.50;1.92;;;;;;;15.36;58.65;99397.03;5031147;28;20183;-56
2022/07/16 01:58:08;;;;;;;5.32;1.90;;;;;;;15.40;58.77;99399.41;5030002;28;20071;-57
2022/07/16 02:00:37;;;;;;;8.00;2.58;;;;;;;15.22;58.56;99373.44;5030517;28;20045;-61
2022/07/16 02:03:03;;;;;;;8.55;2.22;;;;;;;15.42;58.91;99400.06;5030559;28;20545;-59
2022/07/16 02:05:29;;;;;;;7.50;2.30;;;;;;;15.43;58.84;99393.66;5030592;28;20033;-56
2022/07/16 02:07:55;;;;;;;4.60;2.50;;;;;;;15.46;58.93;99401.44;5030340;28;20049;-57
2022/07/16 02:10:20;;;;;;;6.70;2.40;;;;;;;15.45;58.92;99397.06;5030491;28;20449;-60
2022/07/16 02:12:46;;;;;;;5.90;2.50;;;;;;;15.47;59.14;99400.44;5030021;28;20163;-59
2022/07/16 02:15:12;;;;;;;5.03;1.70;;;;;;;15.48;58.83;99402.13;5030450;28;20119;-56
2022/07/16 02:17:39;;;;;;;6.47;1.80;;;;;;;15.53;59.28;99399.78;5029960;28;20033;-59
2022/07/16 02:20:06;;;;;;;4.70;1.73;;;;;;;15.65;58.33;99403.81;5030330;28;20131;-57
2022/07/16 02:22:31;;;;;;;5.88;1.92;;;;;;;15.84;58.02;99392.88;5028928;28;20168;-58
2022/07/16 02:24:57;;;;;;;5.28;2.08;;;;;;;16.02;57.63;99401.66;5029768;28;20064;-60
2022/07/16 02:27:23;;;;;;;6.85;1.85;;;;;;;16.15;56.94;99401.13;5029892;28;20030;-56
2022/07/16 02:29:49;;;;;;;3.72;1.70;;;;;;;16.28;56.33;99388.97;5030654;28;20099;-58
2022/07/16 02:32:14;;;;;;;5.45;2.08;;;;;;;16.54;56.02;99396.00;5030749;28;20121;-54
2022/07/16 02:34:40;;;;;;;4.60;1.65;;;;;;;16.79;55.51;99399.47;5030580;28;20035;-57
2022/07/16 02:37:06;;;;;;;5.55;2.13;;;;;;;17.12;54.31;99402.06;5029866;28;20433;-57
2022/07/16 02:39:32;;;;;;;4.18;1.67;;;;;;;17.56;52.95;99407.88;5030198;28;20508;-57
2022/07/16 02:41:58;;;;;;;7.47;1.83;;;;;;;17.56;52.26;99349.16;5030430;28;20033;-56
2022/07/16 02:44:23;;;;;;;5.38;2.05;;;;;;;18.04;51.63;99405.84;5030036;28;20041;-59
2022/07/16 02:46:49;;;;;;;4.75;1.92;;;;;;;18.17;51.02;99397.09;5030064;28;20524;-56
2022/07/16 02:49:14;;;;;;;4.10;1.70;;;;;;;18.14;51.15;99388.47;5031229;28;20427;-59
2022/07/16 02:51:40;;;;;;;4.35;1.90;;;;;;;18.10;51.33;99398.00;5033823;28;20029;-56
2022/07/16 02:54:05;;;;;;;3.20;1.45;;;;;;;17.85;51.40;99380.09;5033688;28;21019;-58
2022/07/16 02:56:31;;;;;;;5.75;1.50;;;;;;;17.87;51.72;99405.13;5032261;28;20026;-61
2022/07/16 02:58:57;;;;;;;4.43;1.83;;;;;;;17.78;51.99;99406.19;5033590;28;20116;-59
2022/07/16 03:01:22;;;;;;;2.50;1.48;;;;;;;17.70;52.19;99408.97;5033683;28;20026;-56
2022/07/16 03:03:48;;;;;;;5.35;1.85;;;;;;;17.63;52.59;99415.13;5033337;28;20033;-57
2022/07/16 03:06:15;;;;;;;4.53;1.27;;;;;;;17.58;52.42;99414.78;5033944;28;20037;-56
2022/07/16 03:08:40;;;;;;;4.03;1.35;;;;;;;17.57;52.38;99415.00;5033172;28;20141;-56
2022/07/16 03:11:05;;;;;;;3.97;1.85;;;;;;;17.56;52.52;99410.59;5033607;28;20517;-58
2022/07/16 03:13:31;;;;;;;5.05;1.48;;;;;;;17.67;52.15;99412.88;5033165;28;20120;-60
2022/07/16 03:15:56;;;;;;;5.30;1.75;;;;;;;17.88;51.66;99419.50;5033175;28;20359;-59
2022/07/16 03:18:22;;;;;;;3.35;1.40;;;;;;;18.20;50.83;99422.97;5028410;28;20030;-58
2022/07/16 03:20:48;;;;;;;4.57;1.55;;;;;;;18.33;50.19;99403.38;5013920;28;20033;-57
2022/07/16 03:23:14;;;;;;;5.38;1.38;;;;;;;18.77;49.51;99417.97;5013434;28;20022;-56
2022/07/16 03:25:41;;;;;;;2.88;1.30;;;;;;;19.31;47.86;99427.69;5013434;28;20026;-58
2022/07/16 03:28:08;;;;;;;3.17;1.35;;;;;;;19.90;46.48;99430.38;5019679;28;20044;-59
2022/07/16 03:30:33;;;;;;;1.70;1.20;;;;;;;20.50;44.98;99433.59;5032580;28;20477;-59
2022/07/16 03:32:59;;;;;;;4.70;1.30;;;;;;;21.11;43.66;99430.41;5032885;28;20036;-57
2022/07/16 03:35:24;;;;;;;3.60;1.42;;;;;;;21.80;41.98;99440.25;5032898;28;20049;-59
2022/07/16 03:40:34;;;;;;;5.57;1.60;;;;;;;23.19;38.73;99424.16;5032714;28;20462;-60
2022/07/16 03:42:59;;;;;;;3.67;1.25;;;;;;;23.68;37.35;99427.28;5032629;28;20033;-59
2022/07/16 03:45:25;;;;;;;4.95;1.50;;;;;;;24.20;35.96;99409.88;5031575;28;20034;-59
2022/07/16 03:47:51;;;;;;;4.18;1.08;;;;;;;24.92;34.79;99433.22;5032326;28;20021;-59
2022/07/16 03:50:17;;;;;;;2.70;1.20;;;;;;;25.69;33.72;99430.97;5032927;28;20450;-60
2022/07/16 03:52:44;;;;;;;2.65;1.27;;;;;;;26.28;32.49;99425.63;5031793;28;20091;-61
2022/07/16 03:55:10;;;;;;;2.92;0.98;;;;;;;27.03;30.96;99431.47;5032675;28;20885;-60
2022/07/16 03:57:37;;;;;;;22.40;12.63;;;;;;;27.75;29.70;99434.78;5032377;28;20029;-61
2022/07/16 04:00:04;;;;;;;6.20;3.10;;;;;;;28.31;28.71;99438.78;5032798;28;20029;-60
2022/07/16 04:02:29;;;;;;;8.38;4.95;;;;;;;28.85;27.82;99423.59;5031283;28;20029;-58
2022/07/16 04:04:55;;;;;;;3.53;2.47;;;;;;;29.34;27.03;99445.72;5031708;28;20098;-59
2022/07/16 04:07:20;;;;;;;2.60;1.35;;;;;;;29.56;26.61;99436.59;5032508;28;20026;-57
2022/07/16 04:09:46;;;;;;;4.55;3.13;;;;;;;30.00;26.22;99441.16;5032104;28;20151;-58
2022/07/16 04:12:11;;;;;;;1.58;1.08;;;;;;;30.35;25.27;99419.66;5031825;28;20087;-60
2022/07/16 04:14:37;;;;;;;5.25;2.53;;;;;;;30.93;25.09;99446.56;5031827;28;20426;-61
2022/07/16 04:17:02;;;;;;;3.88;1.08;;;;;;;31.54;24.23;99447.09;5031565;28;20382;-60
2022/07/16 04:19:28;;;;;;;3.25;0.85;;;;;;;31.75;23.83;99446.03;5031802;28;20033;-60
2022/07/16 04:21:53;;;;;;;4.00;1.70;;;;;;;32.34;22.50;99449.41;5031292;28;20021;-61
2022/07/16 04:24:18;;;;;;;4.35;2.53;;;;;;;32.99;21.84;99444.31;5031386;28;20540;-60
2022/07/16 04:26:44;;;;;;;3.45;0.90;;;;;;;33.61;21.58;99453.19;5031333;28;20382;-61
2022/07/16 04:29:09;;;;;;;2.47;1.10;;;;;;;34.41;20.20;99442.03;5031539;28;20128;-60
2022/07/16 04:31:35;;;;;;;2.53;1.08;;;;;;;34.93;19.58;99449.81;5031344;28;20100;-59
2022/07/16 04:34:00;;;;;;;5.75;1.17;;;;;;;35.42;19.35;99449.78;5031476;28;20033;-59
2022/07/16 04:36:26;;;;;;;2.90;1.08;;;;;;;36.06;18.79;99446.66;5031502;28;20050;-60
2022/07/16 04:38:51;;;;;;;2.42;0.80;;;;;;;36.70;18.10;99442.50;5031540;28;20048;-60
2022/07/16 04:41:17;;;;;;;1.67;1.02;;;;;;;37.14;17.65;99452.22;5031044;28;20491;-60
2022/07/16 04:43:42;;;;;;;2.17;0.90;;;;;;;37.31;17.61;99450.75;5030920;28;20119;-60
2022/07/16 04:46:08;;;;;;;2.67;0.90;;;;;;;37.71;16.92;99450.16;5031356;28;20082;-60
2022/07/16 04:48:33;;;;;;;3.50;1.20;;;;;;;38.16;15.91;99441.81;5029632;28;20021;-60
2022/07/16 04:50:59;;;;;;;4.80;1.10;;;;;;;38.67;16.19;99450.00;5030704;28;20461;-60
2022/07/16 04:53:24;;;;;;;3.25;1.20;;;;;;;38.85;15.70;99450.09;5031079;28;20404;-60
2022/07/16 04:55:50;;;;;;;3.08;1.13;;;;;;;39.17;15.36;99457.25;5030192;28;20149;-60
2022/07/16 04:58:15;;;;;;;2.83;1.20;;;;;;;39.70;14.87;99464.94;5029385;28;20037;-62
2022/07/16 05:00:41;;;;;;;3.95;0.90;;;;;;;39.99;14.88;99469.09;5029421;28;20087;-60
2022/07/16 05:03:07;;;;;;;3.15;1.02;;;;;;;40.05;14.31;99462.16;5030970;28;20122;-59
2022/07/16 05:05:35;;;;;;;2.30;1.10;;;;;;;40.15;14.33;99472.19;5031536;28;20029;-64
2022/07/16 05:08:02;;;;;;;1.95;0.98;;;;;;;40.36;14.20;99475.16;5030631;28;20466;-60
2022/07/16 05:10:29;;;;;;;1.35;1.00;;;;;;;40.85;13.55;99465.63;5030291;28;20033;-59
2022/07/16 05:12:55;;;;;;;1.20;0.88;;;;;;;41.39;12.90;99469.78;5030557;28;20037;-60
2022/07/16 05:15:21;;;;;;;0.90;0.75;;;;;;;41.92;12.73;99460.97;5031609;28;20312;-60
2022/07/16 05:17:47;;;;;;;2.20;0.85;;;;;;;42.40;12.11;99473.56;5030651;28;20034;-62
2022/07/16 05:20:14;;;;;;;1.33;1.00;;;;;;;42.94;11.79;99476.63;5030591;28;20033;-60
2022/07/16 05:22:40;;;;;;;4.10;0.80;;;;;;;43.30;11.54;99439.19;5030645;28;20087;-60
2022/07/16 05:25:07;;;;;;;1.45;0.80;;;;;;;43.80;11.10;99474.88;5030549;28;20108;-60
2022/07/16 05:27:33;;;;;;;1.30;0.80;;;;;;;43.69;11.37;99474.53;5028884;28;20025;-61
2022/07/16 05:29:59;;;;;;;3.60;0.85;;;;;;;43.39;11.94;99463.56;5030019;28;20029;-59
2022/07/16 05:32:24;;;;;;;2.50;1.13;;;;;;;43.77;11.04;99469.94;5030951;28;20080;-60
2022/07/16 05:34:50;;;;;;;3.90;1.00;;;;;;;44.21;10.59;99469.19;5029113;28;20401;-60
2022/07/16 05:37:16;;;;;;;2.13;1.00;;;;;;;44.35;10.74;99480.06;5030296;28;20040;-60
2022/07/16 05:39:41;;;;;;;2.00;0.88;;;;;;;44.68;9.90;99465.63;5030371;28;20420;-59
2022/07/16 05:42:07;;;;;;;2.80;0.98;;;;;;;44.81;10.12;99469.19;5029768;28;20030;-61
2022/07/16 05:44:32;;;;;;;1.75;0.95;;;;;;;44.93;10.22;99465.47;5030111;28;20037;-60
2022/07/16 05:46:58;;;;;;;2.63;1.10;;;;;;;45.53;9.54;99472.88;5030075;28;20458;-60
2022/07/16 05:49:23;;;;;;;2.92;1.10;;;;;;;45.90;9.37;99471.66;5030601;28;20397;-59
2022/07/16 05:51:49;;;;;;;1.45;1.10;;;;;;;46.44;9.00;99472.72;5030224;28;20029;-60
2022/07/16 05:54:15;;;;;;;1.90;1.20;;;;;;;47.01;8.56;99476.94;5029821;28;20512;-60
2022/07/16 05:56:40;;;;;;;1.10;1.00;;;;;;;47.34;8.40;99468.94;5030411;28;20116;-59
2022/07/16 05:59:05;;;;;;;1.50;1.02;;;;;;;47.57;8.09;99469.66;5030285;28;20109;-60
2022/07/16 06:01:31;;;;;;;1.73;0.90;;;;;;;47.68;7.69;99475.50;5030827;28;20030;-60
2022/07/16 06:03:57;;;;;;;2.05;0.98;;;;;;;47.74;8.00;99473.13;5030115;28;20493;-62
2022/07/16 06:06:23;;;;;;;1.17;1.00;;;;;;;47.95;7.72;99472.56;5030564;28;20112;-62
2022/07/16 06:08:48;;;;;;;1.52;1.02;;;;;;;48.52;7.73;99470.75;5030343;28;20048;-60
2022/07/16 06:11:14;;;;;;;1.25;1.10;;;;;;;49.23;6.85;99471.72;5030333;28;20065;-61
2022/07/16 06:13:39;;;;;;;1.20;1.00;;;;;;;49.78;6.55;99476.50;5029983;28;20121;-59
2022/07/16 06:16:07;;;;;;;3.47;1.30;;;;;;;50.10;6.42;99475.78;5029954;28;20022;-59
2022/07/16 06:18:33;;;;;;;2.65;1.17;;;;;;;50.44;6.52;99479.53;5029833;28;20025;-60
2022/07/16 06:20:59;;;;;;;4.53;1.48;;;;;;;50.93;6.28;99474.25;5029829;28;20061;-60
2022/07/16 06:23:24;;;;;;;1.63;1.20;;;;;;;51.10;6.13;99478.31;5029860;28;20060;-59
2022/07/16 06:25:50;;;;;;;3.70;1.10;;;;;;;51.62;5.37;99474.91;5033454;28;20439;-61
2022/07/16 06:28:15;;;;;;;3.03;1.30;;;;;;;51.94;5.45;99478.88;5034035;28;20469;-59
2022/07/16 06:30:41;;;;;;;1.70;1.30;;;;;;;52.03;4.65;99467.81;5034454;28;20040;-60
2022/07/16 06:33:06;;;;;;;1.77;1.50;;;;;;;51.92;5.05;99452.78;5049072;28;20036;-60
2022/07/16 06:35:32;;;;;;;1.73;1.30;;;;;;;52.17;5.14;99481.19;5032984;28;20073;-60
2022/07/16 06:37:57;;;;;;;3.15;1.70;;;;;;;51.93;5.12;99465.81;5034351;28;20072;-59
2022/07/16 06:40:23;;;;;;;1.42;1.00;;;;;;;52.09;4.81;99468.19;5034283;28;20037;-60
2022/07/16 06:42:48;;;;;;;2.45;1.40;;;;;;;51.78;4.69;99470.81;5034048;28;20799;-59
2022/07/16 06:45:14;;;;;;;2.45;1.35;;;;;;;51.72;4.97;99461.84;5033570;28;20083;-59
2022/07/16 06:47:40;;;;;;;2.38;1.50;;;;;;;51.17;5.45;99466.06;5034099;28;20120;-60
2022/07/16 06:50:05;;;;;;;3.65;1.40;;;;;;;51.05;5.44;99471.00;5033846;28;20049;-60
2022/07/16 06:52:31;;;;;;;1.67;1.30;;;;;;;51.49;4.92;99466.00;5033672;28;20334;-60
2022/07/16 06:54:56;;;;;;;1.60;1.50;;;;;;;52.06;5.11;99458.41;5034162;28;20112;-61
2022/07/16 06:57:22;;;;;;;3.22;1.95;;;;;;;52.59;4.54;99461.31;5033636;28;20025;-59
2022/07/16 06:59:47;;;;;;;3.22;1.60;;;;;;;52.63;4.48;99464.97;5033710;28;20030;-59
2022/07/16 07:02:13;;;;;;;2.72;1.52;;;;;;;52.29;4.49;99465.59;5033979;28;20026;-59
2022/07/16 07:04:39;;;;;;;2.05;1.55;;;;;;;51.36;5.32;99467.66;5033415;28;20067;-59
2022/07/16 07:07:05;;;;;;;2.70;1.70;;;;;;;51.54;5.11;99467.63;5033408;28;20022;-60
2022/07/16 07:09:31;;;;;;;2.30;1.80;;;;;;;51.89;5.07;99443.00;5033560;28;20389;-60
2022/07/16 07:11:56;;;;;;;3.40;1.95;;;;;;;53.01;4.61;99469.09;5033665;28;20053;-61
2022/07/16 07:14:22;;;;;;;4.28;1.88;;;;;;;53.41;3.88;99465.84;5033386;28;20112;-61
2022/07/16 07:16:48;;;;;;;4.30;2.13;;;;;;;53.59;3.93;99471.34;5033258;28;20025;-60
2022/07/16 07:19:13;;;;;;;2.42;2.22;;;;;;;53.98;3.24;99472.88;5033337;28;20040;-60
2022/07/16 07:21:38;;;;;;;2.70;2.17;;;;;;;53.95;3.33;99477.44;5033389;28;20374;-60
2022/07/16 07:24:04;;;;;;;2.40;2.17;;;;;;;51.54;4.95;99479.84;5033262;28;20267;-60
2022/07/16 07:26:30;;;;;;;2.08;1.88;;;;;;;50.85;5.22;99467.75;5033223;28;20098;-61
2022/07/16 07:28:55;;;;;;;3.55;1.75;;;;;;;48.65;6.24;99469.25;5033297;28;20039;-59
2022/07/16 07:31:21;;;;;;;2.00;1.65;;;;;;;48.67;6.42;99472.50;5032804;28;20029;-60
2022/07/16 07:33:46;;;;;;;1.60;1.48;;;;;;;50.20;5.49;99473.38;5032863;28;20026;-60
2022/07/16 07:36:12;;;;;;;3.80;1.45;;;;;;;51.13;4.97;99471.81;5032813;28;20396;-61
2022/07/16 07:38:38;;;;;;;1.85;1.70;;;;;;;51.91;4.71;99468.28;5033066;28;20093;-60
2022/07/16 07:41:03;;;;;;;2.08;1.77;;;;;;;52.44;4.51;99471.25;5032676;28;20033;-59
2022/07/16 07:43:29;;;;;;;2.00;1.90;;;;;;;52.58;4.28;99470.31;5032900;28;20029;-59
2022/07/16 07:45:54;;;;;;;2.30;1.60;;;;;;;52.71;4.40;99462.06;5032890;28;20477;-59
2022/07/16 07:48:20;;;;;;;2.85;2.00;;;;;;;53.01;3.72;99475.63;5032806;28;20045;-60
2022/07/16 07:50:45;;;;;;;2.67;1.90;;;;;;;53.10;3.78;99446.59;5032636;28;20056;-59
2022/07/16 07:53:11;;;;;;;2.55;2.15;;;;;;;53.37;3.74;99465.91;5032605;28;20034;-60
2022/07/16 07:55:36;;;;;;;2.08;1.98;;;;;;;53.45;3.94;99480.94;5032412;28;20025;-62
2022/07/16 07:58:02;;;;;;;2.80;2.08;;;;;;;51.79;4.29;99472.44;5033058;28;20030;-61
2022/07/16 08:00:28;;;;;;;2.95;1.70;;;;;;;49.60;5.29;99473.59;5032255;28;20021;-59
2022/07/16 08:02:54;;;;;;;1.52;1.42;;;;;;;47.56;6.61;99461.53;5032493;28;20026;-61
2022/07/16 08:05:20;;;;;;;1.50;1.40;;;;;;;46.96;6.75;99472.41;5031136;28;20102;-59
2022/07/16 08:07:46;;;;;;;1.20;1.20;;;;;;;47.78;6.41;99462.66;5032896;28;20065;-60
2022/07/16 08:10:12;;;;;;;3.05;1.38;;;;;;;47.87;6.03;99470.84;5032236;28;20030;-59
2022/07/16 08:12:40;;;;;;;1.50;1.40;;;;;;;45.86;7.49;99471.59;5032180;28;20489;-60
2022/07/16 08:15:08;;;;;;;4.57;1.40;;;;;;;44.85;7.98;99484.19;5032000;28;20385;-60
2022/07/16 08:17:34;;;;;;;2.90;1.30;;;;;;;44.26;8.10;99466.13;5032250;28;20087;-60
2022/07/16 08:19:59;;;;;;;2.38;0.93;;;;;;;42.20;9.50;99464.03;5032194;28;20029;-61
2022/07/16 08:22:25;;;;;;;2.10;1.08;;;;;;;41.68;9.59;99471.75;5032039;28;20044;-60
2022/07/16 08:27:36;;;;;;;2.95;1.00;;;;;;;36.65;13.53;99482.44;5032139;28;20454;-62
2022/07/16 08:30:01;;;;;;;1.38;0.80;;;;;;;34.93;15.23;99478.47;5031683;28;20041;-61
2022/07/16 08:32:29;;;;;;;2.00;1.10;;;;;;;33.89;16.02;99475.75;5031754;28;20033;-61
2022/07/16 08:34:55;;;;;;;6.43;1.35;;;;;;;32.84;16.75;99476.47;5031492;28;20569;-60
2022/07/16 08:37:36;;;;;;;2.45;1.10;;;;;;;31.97;17.26;99485.66;5032060;28;20103;-61
2022/07/16 08:40:04;;;;;;;6.22;1.27;;;;;;;30.65;19.38;99490.06;5032203;28;20438;-63
2022/07/16 08:42:32;;;;;;;1.98;1.00;;;;;;;29.93;20.25;99496.59;5031683;28;20033;-60
2022/07/16 08:44:58;;;;;;;1.77;0.85;;;;;;;29.45;20.60;99474.28;5031563;28;20083;-60
2022/07/16 08:47:24;;;;;;;1.85;0.85;;;;;;;28.75;21.52;99449.91;5031405;28;20038;-61
2022/07/16 08:49:51;;;;;;;4.55;0.90;;;;;;;28.50;22.63;99492.50;5031301;28;20051;-61
2022/07/16 08:52:19;;;;;;;2.10;0.73;;;;;;;28.29;23.26;99457.47;5031539;28;20430;-61
2022/07/16 08:54:46;;;;;;;1.02;0.80;;;;;;;28.35;23.03;99492.25;5031425;28;20029;-61
2022/07/16 08:57:12;;;;;;;2.03;0.77;;;;;;;28.06;23.46;99492.28;5031629;28;20036;-60
2022/07/16 08:59:37;;;;;;;1.00;0.80;;;;;;;27.88;23.66;99461.16;5031139;28;20030;-61
2022/07/16 09:02:03;;;;;;;2.33;0.80;;;;;;;28.22;22.72;99486.00;5030295;28;20049;-60
2022/07/16 09:04:28;;;;;;;1.05;0.65;;;;;;;28.14;22.44;99485.53;5031421;28;20025;-61
2022/07/16 09:06:54;;;;;;;2.67;0.90;;;;;;;27.99;23.52;99492.44;5031287;28;20112;-61
2022/07/16 09:09:19;;;;;;;1.95;1.00;;;;;;;28.07;23.36;99482.94;5031229;28;20612;-60
2022/07/16 09:11:46;;;;;;;1.88;0.70;;;;;;;28.00;23.27;99485.84;5030985;28;20456;-60
2022/07/16 09:14:16;;;;;;;2.42;1.23;;;;;;;27.96;23.83;99492.06;5030731;28;20121;-60
2022/07/16 09:16:49;;;;;;;2.80;0.95;;;;;;;27.78;24.20;99493.97;5046429;28;20034;-61
2022/07/16 09:19:17;;;;;;;2.05;0.82;;;;;;;27.70;23.88;99491.59;5030862;28;20033;-61
2022/07/16 09:22:08;;;;;;;2.15;0.70;;;;;;;27.91;23.64;99493.66;5030966;28;20033;-60
2022/07/16 09:24:43;;;;;;;2.00;0.68;;;;;;;27.82;24.16;99486.91;5031017;28;20025;-62
2022/07/16 09:27:23;;;;;;;1.60;0.90;;;;;;;27.99;23.84;99486.09;5031029;28;20091;-60
2022/07/16 09:29:56;;;;;;;1.27;0.80;;;;;;;27.89;25.17;99487.56;5029874;28;20112;-60
2022/07/16 09:32:32;;;;;;;3.08;1.00;;;;;;;27.85;24.54;99496.56;5030743;28;20033;-62
2022/07/16 09:35:08;;;;;;;1.70;0.80;;;;;;;27.75;24.33;99491.72;5030682;28;20127;-61
2022/07/16 09:37:55;;;;;;;4.65;0.90;;;;;;;27.71;24.13;99493.28;5029785;28;20038;-60
2022/07/16 09:40:31;;;;;;;1.02;0.70;;;;;;;27.44;24.50;99502.91;5030690;28;20127;-61
2022/07/16 09:42:57;;;;;;;3.03;0.90;;;;;;;27.45;24.74;99492.75;5030202;28;20061;-62
2022/07/16 09:45:22;;;;;;;1.38;0.55;;;;;;;27.65;24.45;99484.13;5030626;28;20081;-60
2022/07/16 09:47:48;;;;;;;1.17;0.60;;;;;;;27.64;24.29;99491.50;5030605;28;20451;-62
2022/07/16 09:50:14;;;;;;;1.88;1.00;;;;;;;27.60;24.42;99476.59;5030552;28;20085;-60
2022/07/16 09:52:40;;;;;;;1.92;0.70;;;;;;;27.71;24.32;99479.53;5030411;28;20053;-60
2022/07/16 09:55:07;;;;;;;1.73;0.82;;;;;;;27.65;24.22;99493.19;5030844;28;20041;-60
2022/07/16 09:57:32;;;;;;;1.02;0.70;;;;;;;27.60;24.50;99487.59;5029790;28;20389;-60
2022/07/16 09:59:59;;;;;;;1.05;0.70;;;;;;;27.65;24.44;99506.13;5032588;28;20029;-60
2022/07/16 10:02:25;;;;;;;1.15;0.75;;;;;;;27.69;24.03;99492.69;5034478;28;20032;-62
2022/07/16 10:04:51;;;;;;;2.95;0.90;;;;;;;27.84;24.32;99500.38;5034593;28;20091;-62
2022/07/16 10:07:18;;;;;;;2.72;0.80;;;;;;;27.98;23.93;99498.19;5034470;28;20037;-62
2022/07/16 10:09:44;;;;;;;2.30;0.60;;;;;;;28.00;23.21;99498.78;5033319;28;20128;-61
2022/07/16 10:12:15;;;;;;;0.82;0.45;;;;;;;28.13;23.03;99506.72;5034970;28;20408;-60
2022/07/16 10:14:44;;;;;;;0.63;0.50;;;;;;;28.27;23.70;99504.50;5034885;28;20116;-61
2022/07/16 10:17:16;;;;;;;1.75;0.70;;;;;;;28.57;23.51;99497.00;5029808;28;20390;-61
2022/07/16 10:19:42;;;;;;;2.35;1.30;;;;;;;28.71;22.30;99492.81;5014660;28;20076;-60
2022/07/16 10:22:19;;;;;;;1.77;1.13;;;;;;;28.79;22.28;99499.81;5030488;28;20108;-62
2022/07/16 10:24:54;;;;;;;1.02;0.50;;;;;;;28.50;22.39;99499.91;5014525;28;20053;-61
2022/07/16 10:27:30;;;;;;;1.85;0.73;;;;;;;28.19;23.07;99493.91;5027931;28;20033;-62
2022/07/16 10:30:19;;;;;;;1.30;0.50;;;;;;;28.05;22.66;99496.94;5034363;28;20561;-61
2022/07/16 10:33:00;;;;;;;3.00;0.50;;;;;;;27.97;23.02;99491.00;5034321;28;20037;-60
2022/07/16 10:35:31;;;;;;;2.58;1.00;;;;;;;27.83;24.28;99493.22;5033976;28;20050;-59
2022/07/16 10:38:08;;;;;;;0.98;0.65;;;;;;;27.86;24.28;99471.56;5033534;28;20049;-61
2022/07/16 10:40:36;;;;;;;3.10;0.80;;;;;;;28.09;24.17;99486.28;5034127;28;20041;-60
2022/07/16 10:43:18;;;;;;;1.13;0.80;;;;;;;28.30;23.83;99492.16;5033988;28;20104;-61
2022/07/16 10:45:58;;;;;;;2.45;0.88;;;;;;;28.15;23.87;99496.31;5033445;28;20041;-61
2022/07/16 10:48:29;;;;;;;1.20;0.70;;;;;;;27.91;24.10;99493.66;5014203;28;20037;-61
2022/07/16 10:51:24;;;;;;;1.95;0.60;;;;;;;27.93;23.83;99499.75;5012969;28;20029;-61
2022/07/16 10:53:56;;;;;;;1.58;0.70;;;;;;;27.68;24.60;99502.03;5014200;28;20121;-60
2022/07/16 10:56:44;;;;;;;0.82;0.60;;;;;;;27.57;24.66;99503.72;5018737;28;20728;-60
2022/07/16 10:59:12;;;;;;;3.20;0.90;;;;;;;27.32;25.86;99500.19;5034017;28;20033;-60
2022/07/16 11:01:40;;;;;;;1.10;0.77;;;;;;;27.42;24.98;99504.22;5033856;28;20143;-61
2022/07/16 11:04:07;;;;;;;1.95;0.80;;;;;;;27.54;24.55;99510.56;5033160;28;20094;-60
2022/07/16 11:06:33;;;;;;;2.33;0.80;;;;;;;27.63;25.09;99514.59;5033037;28;20056;-61
2022/07/16 11:09:00;;;;;;;1.60;0.50;;;;;;;27.70;25.06;99505.34;5033216;28;20026;-62
2022/07/16 11:11:33;;;;;;;1.67;0.65;;;;;;;27.85;24.33;99511.16;5032428;28;20036;-60
2022/07/16 11:14:02;;;;;;;1.13;0.70;;;;;;;28.02;24.92;99508.44;5033415;28;20029;-61
2022/07/16 11:16:28;;;;;;;1.48;0.82;;;;;;;28.19;24.67;99508.50;5033155;28;20036;-61
2022/07/16 11:18:54;;;;;;;2.20;0.80;;;;;;;28.28;24.11;99510.84;5033191;28;20466;-61
2022/07/16 11:21:20;;;;;;;2.13;0.85;;;;;;;28.16;24.43;99497.16;5033461;28;20033;-61
2022/07/16 11:23:59;;;;;;;1.15;0.80;;;;;;;28.06;24.38;99514.28;5033143;28;20120;-60
2022/07/16 11:26:25;;;;;;;0.95;0.70;;;;;;;27.54;25.36;99517.97;5033079;28;20125;-61
2022/07/16 11:28:58;;;;;;;1.98;0.80;;;;;;;27.36;25.54;99531.63;5033379;28;20338;-60
2022/07/16 11:31:25;;;;;;;2.15;0.93;;;;;;;26.97;26.00;99525.81;5033079;28;20022;-60
2022/07/16 11:33:52;;;;;;;6.00;0.98;;;;;;;26.58;26.17;99500.72;5032836;28;20099;-61
2022/07/16 11:36:19;;;;;;;1.52;0.60;;;;;;;26.59;26.53;99527.09;5031382;28;20125;-61
2022/07/16 11:38:46;;;;;;;2.85;0.70;;;;;;;26.53;26.87;99534.38;5033187;28;20193;-61
2022/07/16 11:41:11;;;;;;;1.70;0.80;;;;;;;26.38;27.28;99507.38;5033305;28;20045;-61